Time;durP1;ratioP1;P1;durP2;ratioP2;P2;SDS_P1;SDS_P2;PMS_P1;PMS_P2;Temp;Humidity;BMP_temperature;BMP_pressure;BME280_temperature;BME280_humidity;BME280_pressure;Samples;Min_cycle;Max_cycle;Signal;HPM_P1;HPM_P2
2021/10/22 00:01:24;;;;;;;2.10;0.50;;;;;;;11.04;55.52;98866.66;5102773;28;20048;-78
2021/10/22 00:03:51;;;;;;;2.15;0.73;;;;;;;11.09;55.18;98861.72;5111544;28;20030;-73
2021/10/22 00:06:19;;;;;;;3.15;0.82;;;;;;;11.10;54.85;98858.94;5103739;28;20044;-71
2021/10/22 00:08:46;;;;;;;1.70;0.73;;;;;;;11.10;54.85;98858.94;5098683;28;20050;-71
2021/10/22 00:11:13;;;;;;;3.40;0.88;;;;;;;11.16;54.13;98868.06;5101355;28;20051;-74
2021/10/22 00:13:40;;;;;;;3.85;0.98;;;;;;;11.18;54.19;98858.22;5100517;28;20488;-74
2021/10/22 00:16:07;;;;;;;0.80;0.68;;;;;;;11.21;54.03;98865.00;5099466;28;20615;-73
2021/10/22 00:18:34;;;;;;;3.55;0.85;;;;;;;11.22;54.31;98870.13;5103866;28;20059;-74
2021/10/22 00:21:01;;;;;;;3.30;1.02;;;;;;;11.27;53.77;98878.44;5105294;28;20387;-75
2021/10/22 00:23:29;;;;;;;2.33;1.02;;;;;;;11.36;53.58;98879.38;5103436;28;20052;-75
2021/10/22 00:25:56;;;;;;;1.20;0.60;;;;;;;11.39;53.46;98883.50;5092493;28;20054;-76
2021/10/22 00:28:23;;;;;;;2.67;0.95;;;;;;;11.33;53.64;98895.53;5088888;28;20044;-72
2021/10/22 00:30:50;;;;;;;2.88;0.60;;;;;;;11.31;53.54;98901.91;5088337;28;20070;-78
2021/10/22 00:33:17;;;;;;;1.65;0.60;;;;;;;11.24;53.91;98896.41;5088698;28;20040;-75
2021/10/22 00:35:44;;;;;;;1.73;0.77;;;;;;;11.29;53.64;98920.59;5089346;28;20424;-74
2021/10/22 00:38:11;;;;;;;5.88;0.70;;;;;;;11.24;53.85;98912.28;5088643;28;20071;-76
2021/10/22 00:40:39;;;;;;;5.75;0.70;;;;;;;11.27;53.59;98912.81;5088552;28;20055;-77
2021/10/22 00:43:07;;;;;;;2.92;1.05;;;;;;;11.25;53.72;98925.34;5087018;28;20071;-74
2021/10/22 00:45:34;;;;;;;4.15;0.98;;;;;;;11.21;53.75;98908.09;5089114;28;20055;-77
2021/10/22 00:48:01;;;;;;;1.15;0.75;;;;;;;11.23;53.65;98939.69;5088679;28;20419;-78
2021/10/22 00:50:29;;;;;;;2.40;1.05;;;;;;;11.20;53.58;98942.59;5088836;28;20416;-75
2021/10/22 00:52:56;;;;;;;4.47;1.30;;;;;;;11.16;53.64;98939.41;5088977;28;20135;-76
2021/10/22 00:55:23;;;;;;;0.60;0.60;;;;;;;11.15;53.44;98945.72;5089554;28;20107;-76
2021/10/22 00:57:52;;;;;;;1.55;0.63;;;;;;;11.08;53.50;98934.88;5088244;28;20059;-78
2021/10/22 01:00:20;;;;;;;1.65;0.90;;;;;;;11.06;53.20;98941.31;5088389;28;20062;-77
2021/10/22 01:02:47;;;;;;;4.20;0.80;;;;;;;11.01;52.53;98944.38;5089775;28;20052;-78
2021/10/22 01:05:15;;;;;;;1.25;0.80;;;;;;;10.97;51.93;98950.13;5089405;28;20048;-75
2021/10/22 01:07:44;;;;;;;3.13;0.80;;;;;;;10.93;51.95;98944.28;5089318;28;20052;-76
2021/10/22 01:10:12;;;;;;;2.33;0.95;;;;;;;10.94;51.58;98958.31;5088702;28;20048;-78
2021/10/22 01:12:41;;;;;;;4.32;1.13;;;;;;;10.89;51.40;98945.53;5087474;28;20047;-74
2021/10/22 01:15:10;;;;;;;1.83;1.08;;;;;;;10.89;51.17;98966.66;5088988;28;20055;-75
2021/10/22 01:17:41;;;;;;;2.75;1.25;;;;;;;10.83;51.27;98976.00;5089950;28;20111;-76
2021/10/22 01:20:10;;;;;;;3.95;0.90;;;;;;;10.80;51.27;98964.91;5090375;28;20168;-77
2021/10/22 01:22:39;;;;;;;3.28;0.75;;;;;;;10.76;50.89;98977.56;5090115;28;20048;-76
2021/10/22 01:25:08;;;;;;;2.72;1.83;;;;;;;10.72;50.48;98970.91;5091042;28;20054;-78
2021/10/22 01:27:36;;;;;;;9.13;2.47;;;;;;;10.82;50.03;98982.28;5089298;28;20055;-77
2021/10/22 01:30:05;;;;;;;4.35;1.15;;;;;;;10.93;50.21;98997.13;5090555;28;20227;-75
2021/10/22 01:32:31;;;;;;;4.82;1.65;;;;;;;10.99;50.32;98982.50;5092377;28;20570;-76
2021/10/22 01:34:58;;;;;;;3.28;1.25;;;;;;;11.02;51.13;98995.41;5094962;28;20050;-77
2021/10/22 01:37:25;;;;;;;1.25;0.50;;;;;;;10.95;51.45;99004.88;5095507;28;20052;-76
2021/10/22 01:39:54;;;;;;;4.60;1.20;;;;;;;10.91;51.90;99006.97;5092805;28;20050;-77
2021/10/22 01:42:21;;;;;;;4.35;1.35;;;;;;;10.81;52.32;99008.84;5087098;28;20055;-77
2021/10/22 01:44:47;;;;;;;2.17;1.20;;;;;;;10.76;52.46;99017.16;5088685;28;20540;-77
2021/10/22 01:47:15;;;;;;;6.22;1.63;;;;;;;10.75;52.77;99034.00;5089105;28;20361;-78
2021/10/22 01:49:42;;;;;;;5.78;1.10;;;;;;;10.76;52.46;99008.41;5088226;28;20043;-78
2021/10/22 01:52:08;;;;;;;7.68;2.53;;;;;;;10.68;51.74;99019.72;5088136;28;20044;-78
2021/10/22 01:54:35;;;;;;;7.88;1.98;;;;;;;10.75;51.60;99036.66;5088374;28;20530;-75
2021/10/22 01:57:05;;;;;;;6.20;1.58;;;;;;;10.84;51.75;99032.28;5088390;28;20055;-78
2021/10/22 01:59:32;;;;;;;7.53;1.85;;;;;;;10.85;51.49;99040.09;5088879;28;20044;-72
2021/10/22 02:01:59;;;;;;;7.70;1.40;;;;;;;10.90;51.21;99039.66;5091445;28;20183;-76
2021/10/22 02:04:26;;;;;;;13.73;2.38;;;;;;;10.86;51.22;99040.94;5097601;28;20048;-77
2021/10/22 02:06:53;;;;;;;4.90;1.85;;;;;;;10.77;51.47;99034.69;5090043;28;20052;-74
2021/10/22 02:09:20;;;;;;;8.63;1.38;;;;;;;10.75;51.33;99035.78;5086728;28;20170;-76
2021/10/22 02:11:47;;;;;;;6.22;2.30;;;;;;;10.62;50.34;99034.28;5086882;28;20044;-74
2021/10/22 02:14:16;;;;;;;7.22;2.10;;;;;;;10.65;50.26;99038.47;5085584;28;20076;-76
2021/10/22 02:16:43;;;;;;;4.72;2.10;;;;;;;10.61;49.85;99052.94;5089203;28;20067;-75
2021/10/22 02:19:11;;;;;;;4.63;1.48;;;;;;;10.61;49.92;99063.50;5088465;28;20052;-78
2021/10/22 02:21:39;;;;;;;5.75;2.28;;;;;;;10.61;50.00;99066.13;5093954;28;20050;-75
2021/10/22 02:24:07;;;;;;;3.63;1.80;;;;;;;10.64;49.92;99071.13;5094645;28;20055;-77
2021/10/22 02:26:34;;;;;;;7.47;1.92;;;;;;;10.68;49.83;99073.34;5089616;28;20048;-76
2021/10/22 02:29:01;;;;;;;2.15;1.48;;;;;;;10.76;50.05;99067.34;5088219;28;20128;-75
2021/10/22 02:31:29;;;;;;;9.93;1.60;;;;;;;10.73;50.20;99075.56;5087378;28;20059;-78
2021/10/22 02:33:56;;;;;;;6.43;2.03;;;;;;;10.77;50.50;99079.59;5086727;28;20055;-77
2021/10/22 02:36:23;;;;;;;6.35;1.73;;;;;;;10.82;50.18;99098.50;5086615;28;20047;-77
2021/10/22 02:38:50;;;;;;;5.95;1.80;;;;;;;10.89;50.19;99104.03;5087697;28;20048;-76
2021/10/22 02:41:17;;;;;;;6.30;2.92;;;;;;;10.88;50.31;99087.34;5087422;28;20044;-75
2021/10/22 02:43:44;;;;;;;3.13;1.52;;;;;;;10.94;50.29;99098.34;5085479;28;20193;-77
2021/10/22 02:46:11;;;;;;;9.95;2.05;;;;;;;10.88;50.11;99094.44;5085128;28;20048;-76
2021/10/22 02:48:39;;;;;;;6.18;2.30;;;;;;;10.81;50.27;99102.09;5086416;28;20063;-77
2021/10/22 02:51:06;;;;;;;7.25;1.73;;;;;;;10.67;50.41;99094.59;5087014;28;20048;-76
2021/10/22 02:53:33;;;;;;;5.57;1.35;;;;;;;10.57;50.59;99104.34;5087718;28;20114;-77
2021/10/22 02:56:00;;;;;;;7.03;3.22;;;;;;;10.43;50.69;99106.44;5090660;28;20048;-77
2021/10/22 02:58:27;;;;;;;6.72;2.10;;;;;;;10.34;50.83;99107.25;5090626;28;20507;-76
2021/10/22 03:00:54;;;;;;;10.57;2.88;;;;;;;10.24;50.73;99111.66;5090236;28;20079;-75
2021/10/22 03:03:21;;;;;;;9.00;2.05;;;;;;;10.20;51.01;99111.09;5090321;28;20056;-76
2021/10/22 03:05:50;;;;;;;5.47;1.38;;;;;;;10.16;50.83;99114.16;5092406;28;20048;-74
2021/10/22 03:08:19;;;;;;;4.03;1.30;;;;;;;10.10;50.88;99121.66;5091273;28;20051;-77
2021/10/22 03:10:46;;;;;;;7.97;1.55;;;;;;;10.05;50.93;99120.38;5091337;28;20040;-75
2021/10/22 03:13:13;;;;;;;3.78;2.08;;;;;;;10.00;50.86;99128.69;5089398;28;20044;-77
2021/10/22 03:15:40;;;;;;;8.10;2.55;;;;;;;9.95;51.09;99136.19;5090815;28;20040;-76
2021/10/22 03:18:06;;;;;;;6.63;2.85;;;;;;;9.93;51.00;99136.31;5090897;28;20501;-76
2021/10/22 03:20:35;;;;;;;4.18;1.83;;;;;;;9.93;50.88;99138.94;5091029;28;20464;-76
2021/10/22 03:23:04;;;;;;;4.32;2.05;;;;;;;9.89;51.17;99149.91;5093722;28;20040;-76
2021/10/22 03:25:31;;;;;;;7.72;1.83;;;;;;;9.90;51.06;99155.06;5094259;28;20044;-77
2021/10/22 03:28:02;;;;;;;6.22;2.47;;;;;;;9.88;51.33;99154.34;5094347;28;20040;-77
2021/10/22 03:30:29;;;;;;;9.70;2.10;;;;;;;9.85;51.31;99156.41;5091485;28;20113;-75
2021/10/22 03:32:56;;;;;;;8.55;2.45;;;;;;;9.83;51.37;99155.69;5093153;28;20234;-72
2021/10/22 03:35:25;;;;;;;4.75;1.60;;;;;;;9.78;51.54;99150.84;5091980;28;20040;-72
2021/10/22 03:37:52;;;;;;;6.80;1.63;;;;;;;9.76;51.81;99173.88;5091057;28;20136;-74
2021/10/22 03:40:21;;;;;;;5.43;2.25;;;;;;;9.75;51.98;99177.47;5094052;28;20071;-75
2021/10/22 03:42:48;;;;;;;4.35;2.00;;;;;;;9.71;52.13;99170.81;5090142;28;20052;-75
2021/10/22 03:45:16;;;;;;;8.60;2.13;;;;;;;9.73;52.03;99182.88;5089878;28;20089;-75
2021/10/22 03:47:43;;;;;;;3.35;1.50;;;;;;;9.73;51.99;99179.41;5090998;28;20040;-75
2021/10/22 03:50:13;;;;;;;6.65;1.98;;;;;;;9.70;52.16;99180.50;5089365;28;20132;-74
2021/10/22 03:52:40;;;;;;;9.65;2.58;;;;;;;9.68;52.11;99190.34;5091100;28;20044;-73
2021/10/22 03:55:08;;;;;;;8.43;2.35;;;;;;;9.64;52.19;99182.84;5089988;28;20040;-74
2021/10/22 03:57:36;;;;;;;3.60;1.45;;;;;;;9.63;52.25;99184.63;5088725;28;20067;-76
2021/10/22 04:00:05;;;;;;;3.88;1.08;;;;;;;9.63;52.21;99189.06;5090719;28;20055;-74
2021/10/22 04:02:32;;;;;;;2.97;2.10;;;;;;;9.58;52.34;99184.22;5088982;28;20074;-75
2021/10/22 04:04:59;;;;;;;5.35;2.00;;;;;;;9.54;52.56;99185.41;5089604;28;20048;-75
2021/10/22 04:07:26;;;;;;;5.72;2.08;;;;;;;9.53;52.35;99189.03;5088558;28;20468;-71
2021/10/22 04:09:53;;;;;;;5.63;1.85;;;;;;;9.51;52.37;99180.44;5089239;28;20047;-76
2021/10/22 04:12:20;;;;;;;7.80;2.35;;;;;;;9.46;52.48;99179.97;5087280;28;20044;-76
2021/10/22 04:14:48;;;;;;;7.13;1.80;;;;;;;9.46;52.67;99187.88;5089689;28;20387;-72
2021/10/22 04:17:15;;;;;;;3.72;1.92;;;;;;;9.42;52.49;99183.81;5088196;28;20468;-73
2021/10/22 04:19:43;;;;;;;6.80;1.92;;;;;;;9.36;52.49;99180.75;5089665;28;20055;-73
2021/10/22 04:22:10;;;;;;;11.30;3.17;;;;;;;9.38;52.26;99186.72;5093696;28;20051;-73
2021/10/22 04:24:38;;;;;;;2.72;1.83;;;;;;;9.37;52.41;99190.31;5094601;28;20044;-76
2021/10/22 04:27:05;;;;;;;4.90;1.38;;;;;;;9.36;52.39;99193.09;5095946;28;20387;-74
2021/10/22 04:29:32;;;;;;;3.80;1.73;;;;;;;9.32;52.46;99187.22;5092060;28;20040;-72
2021/10/22 04:32:00;;;;;;;10.13;2.03;;;;;;;9.32;52.35;99200.41;5092993;28;20634;-75
2021/10/22 04:34:28;;;;;;;10.73;3.20;;;;;;;9.29;52.20;99198.06;5096333;28;20496;-74
2021/10/22 04:37:01;;;;;;;5.18;3.67;;;;;;;9.30;52.18;99196.25;5092263;28;20048;-76
2021/10/22 04:42:13;;;;;;;4.88;1.23;;;;;;;9.32;51.92;99204.84;5089279;28;20181;-75
2021/10/22 04:44:40;;;;;;;9.25;2.03;;;;;;;9.27;51.96;99210.50;5091428;28;20411;-74
2021/10/22 04:47:08;;;;;;;8.38;1.75;;;;;;;9.28;51.92;99201.63;5090685;28;20168;-74
2021/10/22 04:49:36;;;;;;;7.30;1.83;;;;;;;9.26;51.77;99197.47;5091159;28;20044;-78
2021/10/22 04:52:03;;;;;;;6.72;2.38;;;;;;;9.28;51.75;99214.00;5089780;28;20183;-71
2021/10/22 04:54:30;;;;;;;6.28;2.13;;;;;;;9.19;51.73;99205.06;5087824;28;20048;-71
2021/10/22 04:56:57;;;;;;;5.32;2.47;;;;;;;9.23;51.56;99219.63;5087629;28;20101;-73
2021/10/22 04:59:24;;;;;;;10.57;2.75;;;;;;;9.26;51.57;99219.38;5090642;28;20048;-74
2021/10/22 05:01:52;;;;;;;5.60;1.67;;;;;;;9.27;51.41;99214.94;5090695;28;20423;-75
2021/10/22 05:04:21;;;;;;;4.40;1.70;;;;;;;9.26;51.38;99222.00;5088611;28;20047;-73
2021/10/22 05:06:48;;;;;;;9.45;2.70;;;;;;;9.21;51.55;99226.81;5088243;28;20054;-72
2021/10/22 05:09:15;;;;;;;5.13;1.63;;;;;;;9.24;51.32;99233.63;5086712;28;20040;-71
2021/10/22 05:11:41;;;;;;;2.83;1.33;;;;;;;9.24;51.44;99226.59;5087514;28;20080;-71
2021/10/22 05:14:08;;;;;;;7.63;2.03;;;;;;;9.24;51.44;99242.38;5085571;28;20641;-73
2021/10/22 05:16:35;;;;;;;10.88;2.10;;;;;;;9.25;51.48;99244.03;5086551;28;20056;-70
2021/10/22 05:19:02;;;;;;;6.75;2.17;;;;;;;9.26;51.59;99240.47;5086267;28;20426;-73
2021/10/22 05:21:31;;;;;;;12.65;3.92;;;;;;;9.21;51.68;99245.28;5086709;28;20753;-70
2021/10/22 05:23:57;;;;;;;10.38;2.70;;;;;;;9.24;51.71;99250.28;5088762;28;20040;-73
2021/10/22 05:26:24;;;;;;;8.27;2.10;;;;;;;9.26;51.88;99255.44;5088678;28;20047;-75
2021/10/22 05:28:52;;;;;;;4.55;2.17;;;;;;;9.24;51.75;99260.84;5091800;28;20062;-75
2021/10/22 05:31:20;;;;;;;7.68;3.08;;;;;;;9.26;52.07;99255.44;5086566;28;20047;-74
2021/10/22 05:33:47;;;;;;;5.38;1.70;;;;;;;9.24;51.93;99252.94;5087573;28;20048;-74
2021/10/22 05:36:14;;;;;;;8.70;2.17;;;;;;;9.23;52.19;99272.31;5086462;28;20081;-76
2021/10/22 05:38:42;;;;;;;11.48;2.85;;;;;;;9.28;52.11;99272.78;5087880;28;20056;-74
2021/10/22 05:41:09;;;;;;;10.30;2.97;;;;;;;9.27;52.25;99270.28;5088716;28;20090;-74
2021/10/22 05:43:36;;;;;;;8.82;2.78;;;;;;;9.32;52.12;99276.00;5086406;28;20051;-74
2021/10/22 05:46:03;;;;;;;6.35;2.28;;;;;;;9.30;52.02;99276.13;5087443;28;20051;-74
2021/10/22 05:48:30;;;;;;;5.28;2.10;;;;;;;9.32;52.13;99281.28;5086779;28;20040;-73
2021/10/22 05:50:56;;;;;;;8.55;2.90;;;;;;;9.32;52.14;99276.81;5087104;28;20055;-75
2021/10/22 05:53:23;;;;;;;6.05;1.83;;;;;;;9.29;52.36;99289.41;5087108;28;20056;-75
2021/10/22 05:55:53;;;;;;;7.28;2.90;;;;;;;9.35;52.11;99286.31;5086904;28;20048;-77
2021/10/22 05:58:21;;;;;;;6.25;2.40;;;;;;;9.37;52.18;99287.00;5086086;28;20051;-77
2021/10/22 06:00:48;;;;;;;5.60;2.30;;;;;;;9.38;52.26;99286.88;5085548;28;20048;-76
2021/10/22 06:03:15;;;;;;;7.43;2.85;;;;;;;9.39;52.38;99287.72;5086842;28;20396;-79
2021/10/22 06:05:42;;;;;;;8.55;2.50;;;;;;;9.45;52.21;99294.25;5087991;28;20146;-79
2021/10/22 06:08:09;;;;;;;7.43;2.90;;;;;;;9.48;52.22;99288.75;5050382;28;20044;-76
2021/10/22 06:10:38;;;;;;;4.18;2.50;;;;;;;9.52;52.22;99298.06;5086639;28;20044;-75
2021/10/22 06:13:07;;;;;;;9.65;2.35;;;;;;;9.56;52.17;99281.88;5085489;28;20060;-77
2021/10/22 06:15:34;;;;;;;7.18;2.90;;;;;;;9.57;52.12;99290.59;5084616;28;20058;-75
2021/10/22 06:18:01;;;;;;;6.50;2.45;;;;;;;9.63;52.04;99295.34;5101422;28;20047;-74
2021/10/22 06:20:30;;;;;;;6.50;3.50;;;;;;;9.68;52.01;99302.88;5069762;28;20599;-74
2021/10/22 06:25:44;;;;;;;7.47;3.33;;;;;;;9.79;51.73;99316.00;5065659;28;20051;-74
2021/10/22 06:28:13;;;;;;;9.55;2.53;;;;;;;9.83;51.80;99319.22;5065311;28;20953;-74
2021/10/22 06:30:40;;;;;;;7.00;2.88;;;;;;;9.85;51.74;99319.91;5078348;28;20476;-74
2021/10/22 06:33:07;;;;;;;6.22;2.30;;;;;;;9.86;51.53;99330.34;5085278;28;20048;-74
2021/10/22 06:35:34;;;;;;;8.27;2.38;;;;;;;9.91;51.37;99329.97;5085394;28;20044;-73
2021/10/22 06:38:01;;;;;;;4.72;2.00;;;;;;;10.00;51.33;99333.63;5085605;28;20498;-74
2021/10/22 06:40:28;;;;;;;11.82;3.65;;;;;;;10.03;51.08;99342.13;5085799;28;20048;-74
2021/10/22 06:42:55;;;;;;;12.80;3.17;;;;;;;10.05;51.07;99349.91;5084141;28;20130;-74
2021/10/22 06:45:23;;;;;;;8.45;4.22;;;;;;;10.10;50.86;99335.34;5085753;28;20058;-72
2021/10/22 06:47:50;;;;;;;19.30;3.78;;;;;;;10.16;50.71;99334.00;5085397;28;20664;-73
2021/10/22 06:50:17;;;;;;;6.28;2.35;;;;;;;10.21;50.66;99328.31;5086509;28;20051;-74
2021/10/22 06:52:45;;;;;;;7.78;3.10;;;;;;;10.21;50.24;99336.22;5090805;28;20058;-75
2021/10/22 06:55:12;;;;;;;8.65;4.15;;;;;;;10.35;50.15;99338.53;5088935;28;20089;-75
2021/10/22 06:57:40;;;;;;;10.63;3.75;;;;;;;10.51;49.72;99338.91;5086808;28;20058;-74
2021/10/22 07:00:08;;;;;;;5.45;2.63;;;;;;;10.56;49.63;99335.84;5086925;28;20048;-75
2021/10/22 07:02:47;;;;;;;15.68;4.20;;;;;;;10.50;49.50;99337.22;5092518;28;20093;-75
2021/10/22 07:05:25;;;;;;;7.80;2.63;;;;;;;10.41;49.48;99332.75;5086875;28;20039;-76
2021/10/22 07:07:51;;;;;;;9.43;3.40;;;;;;;10.50;49.51;99339.03;5099848;28;20696;-75
2021/10/22 07:10:18;;;;;;;11.85;1.98;;;;;;;10.56;49.43;99335.03;5106422;28;20043;-75
2021/10/22 07:12:45;;;;;;;4.80;1.88;;;;;;;10.63;49.28;99346.72;5107863;28;20043;-76
2021/10/22 07:15:12;;;;;;;8.40;2.70;;;;;;;10.67;49.08;99342.84;5104604;28;20531;-75
2021/10/22 07:17:41;;;;;;;15.57;4.00;;;;;;;10.77;49.30;99340.22;5094072;28;20495;-74
2021/10/22 07:20:13;;;;;;;9.90;3.50;;;;;;;10.87;49.00;99336.63;5083446;28;20059;-73
2021/10/22 07:22:47;;;;;;;7.25;2.92;;;;;;;11.03;48.69;99343.22;5072101;28;20075;-75
2021/10/22 07:25:14;;;;;;;7.37;2.27;;;;;;;11.13;48.48;99346.72;5091218;28;20349;-74
2021/10/22 07:27:41;;;;;;;6.07;2.65;;;;;;;11.12;48.52;99358.25;5099022;28;20139;-75
2021/10/22 07:30:09;;;;;;;3.75;2.65;;;;;;;11.18;48.36;99349.78;5100185;28;20662;-75
2021/10/22 07:32:37;;;;;;;7.40;2.70;;;;;;;11.30;47.87;99358.41;5094556;28;20055;-75
2021/10/22 07:35:06;;;;;;;5.78;2.53;;;;;;;11.35;47.76;99366.75;5106320;28;20050;-74
2021/10/22 07:37:34;;;;;;;6.60;2.00;;;;;;;11.46;47.67;99371.91;5100546;28;20044;-75
2021/10/22 07:40:01;;;;;;;6.10;2.20;;;;;;;11.53;47.69;99366.91;5052745;28;20119;-74
2021/10/22 07:42:28;;;;;;;9.77;2.95;;;;;;;11.50;47.26;99377.75;5070352;28;20044;-72
2021/10/22 07:44:56;;;;;;;7.78;2.40;;;;;;;11.51;47.15;99378.63;5093122;28;20041;-74
2021/10/22 07:47:24;;;;;;;7.68;2.33;;;;;;;11.52;47.35;99381.09;5102470;28;20138;-73
2021/10/22 07:49:52;;;;;;;7.32;2.95;;;;;;;11.52;47.21;99374.97;5098208;28;20598;-74
2021/10/22 07:52:22;;;;;;;8.02;3.15;;;;;;;11.56;47.13;99389.59;5099132;28;20531;-72
2021/10/22 07:54:49;;;;;;;9.13;4.63;;;;;;;11.69;46.88;99381.41;5093403;28;20429;-74
2021/10/22 07:57:16;;;;;;;8.98;3.10;;;;;;;11.70;46.87;99388.34;5088328;28;20046;-74
2021/10/22 07:59:43;;;;;;;5.63;2.55;;;;;;;11.90;46.56;99394.44;5086088;28;20047;-76
2021/10/22 08:02:11;;;;;;;8.25;3.00;;;;;;;11.99;46.03;99394.50;5095243;28;20047;-73
2021/10/22 08:04:38;;;;;;;8.82;2.67;;;;;;;12.14;45.94;99402.00;5098863;28;20036;-74
2021/10/22 08:07:05;;;;;;;8.48;3.03;;;;;;;12.38;45.63;99393.56;5090656;28;20404;-74
2021/10/22 08:09:34;;;;;;;8.38;2.47;;;;;;;12.52;45.41;99400.22;5095786;28;20122;-77
2021/10/22 08:12:01;;;;;;;6.90;2.60;;;;;;;12.61;44.92;99394.03;5096873;28;20101;-73
2021/10/22 08:14:28;;;;;;;9.13;2.50;;;;;;;12.69;44.74;99402.09;5092898;28;20502;-73
2021/10/22 08:16:55;;;;;;;12.48;4.43;;;;;;;12.55;44.45;99407.84;5098618;28;20096;-77
2021/10/22 08:19:22;;;;;;;9.57;2.45;;;;;;;12.57;44.60;99403.28;5094739;28;20553;-77
2021/10/22 08:24:30;;;;;;;9.80;2.60;;;;;;;12.81;43.75;99387.66;5088947;28;20044;-73
2021/10/22 08:26:58;;;;;;;10.40;3.58;;;;;;;12.68;43.41;99399.59;5098088;28;20051;-76
2021/10/22 08:29:25;;;;;;;9.95;2.88;;;;;;;12.83;43.58;99400.78;5091616;28;20036;-76
2021/10/22 08:31:52;;;;;;;8.20;3.17;;;;;;;12.92;43.68;99396.41;5102810;28;20119;-76
2021/10/22 08:34:19;;;;;;;11.48;3.00;;;;;;;12.94;43.06;99410.34;5100376;28;20040;-75
2021/10/22 08:36:48;;;;;;;12.88;3.38;;;;;;;12.82;43.41;99417.69;5101630;28;20048;-75
2021/10/22 08:39:16;;;;;;;15.05;2.80;;;;;;;12.72;43.70;99412.41;5099003;28;20128;-77
2021/10/22 08:41:43;;;;;;;7.50;2.78;;;;;;;12.66;43.68;99406.84;5098938;28;20075;-75
2021/10/22 08:44:12;;;;;;;11.18;3.70;;;;;;;12.74;43.70;99405.13;5092040;28;20072;-73
2021/10/22 08:46:42;;;;;;;6.15;2.83;;;;;;;13.01;43.17;99411.44;5087389;28;20044;-75
2021/10/22 08:49:11;;;;;;;8.00;2.78;;;;;;;13.14;42.68;99408.44;5088246;28;20071;-74
2021/10/22 08:51:39;;;;;;;13.27;4.30;;;;;;;13.45;42.05;99408.13;5087168;28;20091;-75
2021/10/22 08:54:06;;;;;;;8.70;3.38;;;;;;;13.76;41.80;99403.28;5085331;28;20078;-76
2021/10/22 08:56:33;;;;;;;10.70;2.85;;;;;;;14.22;41.21;99396.00;5086483;28;20547;-75
2021/10/22 08:59:00;;;;;;;13.00;3.90;;;;;;;14.56;40.58;99392.53;5085735;28;20055;-76
2021/10/22 09:01:28;;;;;;;12.70;3.92;;;;;;;14.49;40.01;99402.13;5092193;28;20200;-75
2021/10/22 09:03:56;;;;;;;7.28;2.92;;;;;;;14.39;39.94;99394.28;5107643;28;20051;-77
2021/10/22 09:06:23;;;;;;;6.25;2.33;;;;;;;14.32;40.14;99410.00;5107946;28;20251;-75
2021/10/22 09:08:57;;;;;;;14.15;3.05;;;;;;;14.35;40.31;99406.22;5106914;28;20043;-77
2021/10/22 09:11:25;;;;;;;8.55;3.08;;;;;;;14.46;40.43;99405.13;5096800;28;20044;-75
2021/10/22 09:14:04;;;;;;;11.82;4.55;;;;;;;14.57;40.05;99409.31;5083722;28;20135;-74
2021/10/22 09:16:41;;;;;;;14.55;4.25;;;;;;;14.50;40.10;99409.97;5085921;28;20044;-73
2021/10/22 09:19:08;;;;;;;7.25;2.85;;;;;;;14.43;40.24;99413.41;5086175;28;20268;-72
2021/10/22 09:21:35;;;;;;;12.45;3.15;;;;;;;14.37;40.25;99416.66;5096163;28;20040;-77
2021/10/22 09:24:16;;;;;;;10.02;2.78;;;;;;;14.20;40.27;99421.06;5105459;28;20702;-75
2021/10/22 09:26:51;;;;;;;5.63;2.08;;;;;;;13.95;40.67;99408.44;5107447;28;20341;-76
2021/10/22 09:29:20;;;;;;;9.30;3.42;;;;;;;13.70;40.91;99410.03;5106167;28;20051;-75
2021/10/22 09:31:50;;;;;;;6.07;2.05;;;;;;;13.49;41.24;99415.63;5105149;28;20053;-75
2021/10/22 09:34:30;;;;;;;13.93;3.13;;;;;;;13.28;41.57;99415.06;5110259;28;20054;-75
2021/10/22 09:36:58;;;;;;;10.05;3.53;;;;;;;13.13;41.53;99441.25;5107543;28;20427;-74
2021/10/22 09:39:25;;;;;;;7.07;2.72;;;;;;;13.11;41.83;99422.81;5107220;28;20039;-75
2021/10/22 09:41:53;;;;;;;8.98;3.20;;;;;;;13.10;41.96;99436.22;5106167;28;20137;-74
2021/10/22 09:44:22;;;;;;;10.50;2.92;;;;;;;12.97;42.35;99421.50;5104180;28;20053;-75
2021/10/22 09:46:51;;;;;;;10.10;3.33;;;;;;;12.79;42.55;99417.97;5101078;28;20040;-73
2021/10/22 09:49:28;;;;;;;8.02;2.63;;;;;;;12.69;42.91;99423.28;5090858;28;20055;-77
2021/10/22 09:52:00;;;;;;;9.93;3.05;;;;;;;12.59;43.19;99425.16;5089049;28;20580;-72
2021/10/22 09:54:31;;;;;;;9.68;2.85;;;;;;;12.53;43.47;99413.31;5090116;28;20048;-73
2021/10/22 09:57:04;;;;;;;6.80;3.10;;;;;;;12.54;43.70;99412.31;5087389;28;20043;-73
2021/10/22 09:59:32;;;;;;;11.90;3.90;;;;;;;12.49;43.54;99400.50;5086651;28;20052;-72
2021/10/22 10:02:01;;;;;;;7.70;2.65;;;;;;;12.66;43.71;99407.69;5089379;28;20123;-73
2021/10/22 10:04:30;;;;;;;8.75;2.92;;;;;;;13.04;43.38;99410.31;5086534;28;20654;-74
2021/10/22 10:06:57;;;;;;;8.70;3.80;;;;;;;13.31;42.77;99405.00;5087501;28;20043;-78
2021/10/22 10:09:27;;;;;;;7.32;2.95;;;;;;;13.56;42.36;99397.31;5087603;28;20131;-74
2021/10/22 10:11:55;;;;;;;10.82;3.28;;;;;;;13.58;41.81;99398.81;5097130;28;20472;-75
2021/10/22 10:14:26;;;;;;;12.90;3.15;;;;;;;13.77;41.86;99403.13;5086358;28;20654;-73
2021/10/22 10:16:53;;;;;;;9.10;3.65;;;;;;;13.68;41.51;99408.50;5098697;28;20043;-74
2021/10/22 10:19:24;;;;;;;12.68;3.67;;;;;;;13.66;41.43;99384.78;5103365;28;20046;-77
2021/10/22 10:21:55;;;;;;;12.18;3.22;;;;;;;13.63;41.47;99405.47;5092561;28;20048;-73
2021/10/22 10:24:29;;;;;;;8.40;2.80;;;;;;;13.63;40.92;99398.38;5096100;28;20058;-78
2021/10/22 10:27:05;;;;;;;7.80;3.20;;;;;;;13.61;40.63;99376.44;5093981;28;20517;-77
2021/10/22 10:29:34;;;;;;;;;;;;;;;14.01;39.91;99380.44;5095581;28;20040;-76
2021/10/22 10:32:02;;;;;;;7.60;2.25;;;;;;;14.13;39.64;99373.03;5101284;28;19970;-78
2021/10/22 10:34:43;;;;;;;10.93;3.00;;;;;;;14.40;39.32;99381.84;5093895;28;20048;-78
2021/10/22 10:37:28;;;;;;;7.75;2.42;;;;;;;14.48;39.39;99376.56;5100280;28;20525;-77
2021/10/22 10:40:00;;;;;;;5.88;2.80;;;;;;;14.63;39.06;99364.38;5093429;28;20182;-77
2021/10/22 10:42:33;;;;;;;7.78;2.33;;;;;;;14.77;38.97;99372.75;5094444;28;20048;-75
2021/10/22 10:45:02;;;;;;;11.57;2.72;;;;;;;14.91;38.74;99356.19;5093581;28;20062;-75
2021/10/22 10:47:43;;;;;;;9.65;3.28;;;;;;;14.88;38.44;99364.47;5106425;28;20046;-75
2021/10/22 10:50:13;;;;;;;8.05;2.95;;;;;;;14.97;38.40;99363.50;5097139;28;20055;-75
2021/10/22 10:52:50;;;;;;;7.45;2.83;;;;;;;14.96;38.57;99358.34;5099989;28;20070;-76
2021/10/22 10:55:23;;;;;;;14.18;4.60;;;;;;;14.98;37.73;99369.66;5093044;28;20062;-75
2021/10/22 10:57:52;;;;;;;11.60;3.75;;;;;;;14.77;37.53;99372.75;5089895;28;20040;-78
2021/10/22 11:00:22;;;;;;;9.75;3.72;;;;;;;14.74;37.70;99362.44;5100181;28;20055;-77
2021/10/22 11:03:10;;;;;;;15.40;4.15;;;;;;;14.94;38.01;99352.38;5087585;28;20164;-77
2021/10/22 11:06:34;;;;;;;14.95;3.17;;;;;;;15.14;37.88;99359.06;5094534;28;20051;-77
2021/10/22 11:09:03;;;;;;;11.50;3.50;;;;;;;15.25;37.34;99344.63;5116763;28;20086;-78
2021/10/22 11:11:41;;;;;;;9.75;3.20;;;;;;;15.25;37.04;99350.78;5109981;28;20067;-74
2021/10/22 11:14:26;;;;;;;4.43;2.05;;;;;;;15.28;37.06;99370.91;5106917;28;20055;-77
2021/10/22 11:16:59;;;;;;;5.55;2.55;;;;;;;15.08;37.03;99351.75;5074597;28;20055;-78
2021/10/22 11:19:35;;;;;;;8.88;3.15;;;;;;;14.84;37.16;99355.19;5078698;28;20049;-79
2021/10/22 11:22:08;;;;;;;14.15;4.60;;;;;;;14.68;36.86;99362.06;5082489;28;20049;-79
2021/10/22 11:24:37;;;;;;;8.05;2.30;;;;;;;14.52;37.28;99360.13;5090386;28;20040;-76
2021/10/22 11:27:07;;;;;;;3.92;1.73;;;;;;;14.46;37.39;99366.09;5078622;28;20078;-76
2021/10/22 11:29:35;;;;;;;8.05;3.38;;;;;;;14.51;37.57;99357.63;5073500;28;20045;-77
2021/10/22 11:32:04;;;;;;;7.47;2.40;;;;;;;14.58;37.15;99356.03;5074314;28;20047;-75
2021/10/22 11:34:35;;;;;;;9.82;2.33;;;;;;;14.57;37.13;99361.47;5071950;28;20068;-74
2021/10/22 11:37:08;;;;;;;8.43;1.88;;;;;;;14.52;37.10;99364.63;5070823;28;20658;-74
2021/10/22 11:39:39;;;;;;;5.00;2.25;;;;;;;14.56;36.78;99355.34;5066970;28;20458;-73
2021/10/22 11:42:14;;;;;;;6.65;2.58;;;;;;;14.63;36.62;99355.56;5067461;28;20500;-74
2021/10/22 11:44:44;;;;;;;7.32;2.92;;;;;;;14.70;36.66;99356.59;5074184;28;20048;-73
2021/10/22 11:47:12;;;;;;;7.75;2.67;;;;;;;14.71;36.76;99332.53;5070976;28;20492;-75
2021/10/22 11:49:40;;;;;;;8.95;2.22;;;;;;;14.72;36.99;99333.34;5069590;28;20141;-75